Warrenton, NC

2:59 PM EST on December 28, 2014 (GMT -0500)
Henderson-Oxford | Change Station
CLOSE
Current Station
Airport
Location: Oxford,
Elevation: 528 ft
Nearby Weather Stations

Elev 528 ft 36.36 °N, 78.53 °W | Updated 24 minutes ago

Overcast
Overcast
61 °F
Feels Like 61 °F
N
10
Wind Variable Wind from SW

Today
High -- | Low -- °F
--% Chance of Precip.
Yesterday
High -- | Low -- °F
Precip. -- in
7:23 AM 5:05 PM
Waxing Crescent, 51% visible
Pressure 29.98 in
Visibility 10.0 miles
Clouds Scattered Clouds 1700 ft
Mostly Cloudy 2200 ft
Overcast 6500 ft
Dew Point 53 °F
Humidity 75%
Rainfall 0.03 in
Snow Depth Not available.
UV 1 out of 12
Pollen .20 out of 12
Air Quality Not available.
Flu Activity Not available.
METAR KHNZ 281935Z AUTO 22009KT 10SM SCT017 BKN022 OVC065 16/12 A2998 RMK AO2 T01600116

More Conditions Fewer Conditions

Pressure 29.98 in
Visibility 10.0 miles
Clouds Scattered Clouds 1700 ft
Mostly Cloudy 2200 ft
Overcast 6500 ft
Dew Point 53 °F
Humidity 75%
Rainfall 0.03 in
Snow Depth Not available.
UV 1 out of 12
Pollen .20 out of 12
Air Quality Not available.
Flu Activity Not available.
METAR KHNZ 281935Z AUTO 22009KT 10SM SCT017 BKN022 OVC065 16/12 A2998 RMK AO2 T01600116

More Conditions Fewer Conditions

10-Day Weather Forecast

Almanac

Astronomy

Dec. 28, 2014 Rise Set
Actual Time
Civil Twilight
Nautical Twilight
Astronomical Twilight
Moon
Length of Visible Light
Length of Day
Tomorrow will be .
, % of the Moon is Illuminated

Today's Extremes

State Highs State Lows

Community

WunderPhotos

Upload Photos

1,781,402 photos uploaded!

WunderBlogs® & News

Nearby

Air Quality

  Air Quality AQ Index Pollutant
Not available.

Snow Depth

Station Depth Elevation

Earthquake Activity

City Distance Mag. Time & Date
Minimum magnitude displayed is 2.5.

Coastal Water Temperatures

Place Temperature

Nearby Weather Stations